sensor_id;sensor_type;location;lat;lon;timestamp;temperature;humidity
7077;DHT22;3579;48.956;9.154;2023-05-24T00:02:10;23.90;54.80
7077;DHT22;3579;48.956;9.154;2023-05-24T00:04:39;23.90;54.90
7077;DHT22;3579;48.956;9.154;2023-05-24T00:07:06;23.90;54.90
7077;DHT22;3579;48.956;9.154;2023-05-24T00:09:32;23.90;55.50
7077;DHT22;3579;48.956;9.154;2023-05-24T00:11:58;23.90;55.00
7077;DHT22;3579;48.956;9.154;2023-05-24T00:14:24;23.80;54.90
7077;DHT22;3579;48.956;9.154;2023-05-24T00:16:50;23.80;54.90
7077;DHT22;3579;48.956;9.154;2023-05-24T00:19:16;23.80;54.90
7077;DHT22;3579;48.956;9.154;2023-05-24T00:21:47;23.80;55.00
7077;DHT22;3579;48.956;9.154;2023-05-24T00:24:13;23.80;55.00
7077;DHT22;3579;48.956;9.154;2023-05-24T00:26:39;23.80;55.00
7077;DHT22;3579;48.956;9.154;2023-05-24T00:29:06;23.80;55.10
7077;DHT22;3579;48.956;9.154;2023-05-24T00:31:32;23.80;55.10
7077;DHT22;3579;48.956;9.154;2023-05-24T00:33:58;23.80;55.10
7077;DHT22;3579;48.956;9.154;2023-05-24T00:36:24;23.70;55.10
7077;DHT22;3579;48.956;9.154;2023-05-24T00:38:50;23.70;55.10
7077;DHT22;3579;48.956;9.154;2023-05-24T00:41:17;23.70;55.10
7077;DHT22;3579;48.956;9.154;2023-05-24T00:43:43;23.70;55.20
7077;DHT22;3579;48.956;9.154;2023-05-24T00:48:39;23.70;55.20
7077;DHT22;3579;48.956;9.154;2023-05-24T00:51:05;23.70;55.20
7077;DHT22;3579;48.956;9.154;2023-05-24T00:53:32;23.70;55.30
7077;DHT22;3579;48.956;9.154;2023-05-24T00:56:01;23.60;55.20
7077;DHT22;3579;48.956;9.154;2023-05-24T00:58:28;23.60;55.30
7077;DHT22;3579;48.956;9.154;2023-05-24T01:01:00;23.60;55.30
7077;DHT22;3579;48.956;9.154;2023-05-24T01:03:27;23.60;55.30
7077;DHT22;3579;48.956;9.154;2023-05-24T01:06:01;23.60;55.30
7077;DHT22;3579;48.956;9.154;2023-05-24T01:16:44;23.60;55.40
7077;DHT22;3579;48.956;9.154;2023-05-24T01:19:42;23.50;55.40
7077;DHT22;3579;48.956;9.154;2023-05-24T01:27:43;23.50;55.40
7077;DHT22;3579;48.956;9.154;2023-05-24T01:30:09;23.50;55.40
7077;DHT22;3579;48.956;9.154;2023-05-24T01:32:37;23.50;55.50
7077;DHT22;3579;48.956;9.154;2023-05-24T01:35:03;23.50;55.60
7077;DHT22;3579;48.956;9.154;2023-05-24T01:37:30;23.50;55.60
7077;DHT22;3579;48.956;9.154;2023-05-24T01:39:56;23.40;55.50
7077;DHT22;3579;48.956;9.154;2023-05-24T01:42:51;23.40;55.50
7077;DHT22;3579;48.956;9.154;2023-05-24T01:45:27;23.40;55.50
7077;DHT22;3579;48.956;9.154;2023-05-24T01:48:03;23.40;55.60
7077;DHT22;3579;48.956;9.154;2023-05-24T01:50:33;23.40;55.60
7077;DHT22;3579;48.956;9.154;2023-05-24T01:53:05;23.40;55.70
7077;DHT22;3579;48.956;9.154;2023-05-24T01:55:32;23.40;55.70
7077;DHT22;3579;48.956;9.154;2023-05-24T01:58:01;23.40;55.70
7077;DHT22;3579;48.956;9.154;2023-05-24T02:00:30;23.40;55.70
7077;DHT22;3579;48.956;9.154;2023-05-24T02:02:57;23.30;55.70
7077;DHT22;3579;48.956;9.154;2023-05-24T02:05:23;23.30;55.70
7077;DHT22;3579;48.956;9.154;2023-05-24T02:07:49;23.30;55.70
7077;DHT22;3579;48.956;9.154;2023-05-24T02:10:15;23.30;55.80
7077;DHT22;3579;48.956;9.154;2023-05-24T02:12:41;23.30;55.80
7077;DHT22;3579;48.956;9.154;2023-05-24T02:15:08;23.30;55.80
7077;DHT22;3579;48.956;9.154;2023-05-24T02:17:35;23.30;55.80
7077;DHT22;3579;48.956;9.154;2023-05-24T02:20:02;23.30;55.80
7077;DHT22;3579;48.956;9.154;2023-05-24T02:22:28;23.30;55.80
7077;DHT22;3579;48.956;9.154;2023-05-24T02:24:54;23.30;55.90
7077;DHT22;3579;48.956;9.154;2023-05-24T02:27:20;23.20;55.80
7077;DHT22;3579;48.956;9.154;2023-05-24T02:29:46;23.20;55.80
7077;DHT22;3579;48.956;9.154;2023-05-24T02:32:13;23.20;55.80
7077;DHT22;3579;48.956;9.154;2023-05-24T02:34:39;23.20;55.90
7077;DHT22;3579;48.956;9.154;2023-05-24T02:37:05;23.20;55.90
7077;DHT22;3579;48.956;9.154;2023-05-24T02:39:31;23.20;55.90
7077;DHT22;3579;48.956;9.154;2023-05-24T02:41:57;23.20;56.00
7077;DHT22;3579;48.956;9.154;2023-05-24T02:44:23;23.20;56.00
7077;DHT22;3579;48.956;9.154;2023-05-24T02:46:49;23.20;56.00
7077;DHT22;3579;48.956;9.154;2023-05-24T02:49:15;23.20;56.00
7077;DHT22;3579;48.956;9.154;2023-05-24T02:51:41;23.20;56.10
7077;DHT22;3579;48.956;9.154;2023-05-24T02:54:07;23.10;56.00
7077;DHT22;3579;48.956;9.154;2023-05-24T02:56:33;23.10;56.10
7077;DHT22;3579;48.956;9.154;2023-05-24T02:58:59;23.10;56.10
7077;DHT22;3579;48.956;9.154;2023-05-24T03:01:25;23.10;56.10
7077;DHT22;3579;48.956;9.154;2023-05-24T03:03:51;23.10;56.10
7077;DHT22;3579;48.956;9.154;2023-05-24T03:06:17;23.10;56.10
7077;DHT22;3579;48.956;9.154;2023-05-24T03:08:43;23.10;56.20
7077;DHT22;3579;48.956;9.154;2023-05-24T03:11:09;23.10;56.20
7077;DHT22;3579;48.956;9.154;2023-05-24T03:13:35;23.10;56.20
7077;DHT22;3579;48.956;9.154;2023-05-24T03:16:01;23.10;56.30
7077;DHT22;3579;48.956;9.154;2023-05-24T03:18:27;23.00;56.20
7077;DHT22;3579;48.956;9.154;2023-05-24T03:20:53;23.00;56.30
7077;DHT22;3579;48.956;9.154;2023-05-24T03:23:19;23.00;56.20
7077;DHT22;3579;48.956;9.154;2023-05-24T03:25:45;23.00;56.30
7077;DHT22;3579;48.956;9.154;2023-05-24T03:28:11;23.00;56.30
7077;DHT22;3579;48.956;9.154;2023-05-24T03:30:39;23.00;56.30
7077;DHT22;3579;48.956;9.154;2023-05-24T03:33:05;23.00;56.40
7077;DHT22;3579;48.956;9.154;2023-05-24T03:35:31;23.00;56.40
7077;DHT22;3579;48.956;9.154;2023-05-24T03:37:57;23.00;56.40
7077;DHT22;3579;48.956;9.154;2023-05-24T03:40:23;23.00;56.40
7077;DHT22;3579;48.956;9.154;2023-05-24T03:42:50;22.90;56.40
7077;DHT22;3579;48.956;9.154;2023-05-24T03:45:16;22.90;56.40
7077;DHT22;3579;48.956;9.154;2023-05-24T03:47:42;22.90;56.40
7077;DHT22;3579;48.956;9.154;2023-05-24T03:50:08;22.90;56.50
7077;DHT22;3579;48.956;9.154;2023-05-24T03:52:35;22.90;56.40
7077;DHT22;3579;48.956;9.154;2023-05-24T03:55:01;22.90;56.40
7077;DHT22;3579;48.956;9.154;2023-05-24T03:57:27;22.90;56.50
7077;DHT22;3579;48.956;9.154;2023-05-24T03:59:53;22.90;56.50
7077;DHT22;3579;48.956;9.154;2023-05-24T04:02:19;22.90;56.60
7077;DHT22;3579;48.956;9.154;2023-05-24T04:04:45;22.90;56.50
7077;DHT22;3579;48.956;9.154;2023-05-24T04:07:11;22.90;56.60
7077;DHT22;3579;48.956;9.154;2023-05-24T04:09:38;22.90;56.60
7077;DHT22;3579;48.956;9.154;2023-05-24T04:12:05;22.90;56.60
7077;DHT22;3579;48.956;9.154;2023-05-24T04:14:31;22.80;56.50
7077;DHT22;3579;48.956;9.154;2023-05-24T04:16:57;22.80;56.60
7077;DHT22;3579;48.956;9.154;2023-05-24T04:19:23;22.80;56.50
7077;DHT22;3579;48.956;9.154;2023-05-24T04:21:49;22.80;56.60
7077;DHT22;3579;48.956;9.154;2023-05-24T04:24:15;22.80;56.60
7077;DHT22;3579;48.956;9.154;2023-05-24T04:26:41;22.80;56.60
7077;DHT22;3579;48.956;9.154;2023-05-24T04:29:07;22.80;56.70
7077;DHT22;3579;48.956;9.154;2023-05-24T04:31:33;22.80;56.70
7077;DHT22;3579;48.956;9.154;2023-05-24T04:33:59;22.80;56.70
7077;DHT22;3579;48.956;9.154;2023-05-24T04:36:25;22.80;56.70
7077;DHT22;3579;48.956;9.154;2023-05-24T04:38:53;22.80;56.70
7077;DHT22;3579;48.956;9.154;2023-05-24T04:41:21;22.80;56.80
7077;DHT22;3579;48.956;9.154;2023-05-24T04:43:47;22.80;56.70
7077;DHT22;3579;48.956;9.154;2023-05-24T04:46:13;22.80;56.80
7077;DHT22;3579;48.956;9.154;2023-05-24T04:48:39;22.80;56.80
7077;DHT22;3579;48.956;9.154;2023-05-24T04:51:05;22.80;56.80
7077;DHT22;3579;48.956;9.154;2023-05-24T04:53:31;22.70;56.70
7077;DHT22;3579;48.956;9.154;2023-05-24T04:55:57;22.70;56.80
7077;DHT22;3579;48.956;9.154;2023-05-24T04:58:23;22.70;56.80
7077;DHT22;3579;48.956;9.154;2023-05-24T05:00:49;22.70;56.80
7077;DHT22;3579;48.956;9.154;2023-05-24T05:03:15;22.70;56.80
7077;DHT22;3579;48.956;9.154;2023-05-24T05:05:41;22.70;56.80
7077;DHT22;3579;48.956;9.154;2023-05-24T05:08:08;22.70;56.90
7077;DHT22;3579;48.956;9.154;2023-05-24T05:10:35;22.70;56.90
7077;DHT22;3579;48.956;9.154;2023-05-24T05:13:02;22.70;57.40
7077;DHT22;3579;48.956;9.154;2023-05-24T05:15:29;22.70;56.90
7077;DHT22;3579;48.956;9.154;2023-05-24T05:17:55;22.70;56.90
7077;DHT22;3579;48.956;9.154;2023-05-24T05:20:22;22.70;56.90
7077;DHT22;3579;48.956;9.154;2023-05-24T05:22:48;22.70;56.90
7077;DHT22;3579;48.956;9.154;2023-05-24T05:25:14;22.70;56.90
7077;DHT22;3579;48.956;9.154;2023-05-24T05:27:41;22.70;56.90
7077;DHT22;3579;48.956;9.154;2023-05-24T05:30:07;22.70;56.80
7077;DHT22;3579;48.956;9.154;2023-05-24T05:32:34;22.70;56.80
7077;DHT22;3579;48.956;9.154;2023-05-24T05:35:01;22.70;56.70
7077;DHT22;3579;48.956;9.154;2023-05-24T05:37:27;22.70;56.70
7077;DHT22;3579;48.956;9.154;2023-05-24T05:39:54;22.70;56.70
7077;DHT22;3579;48.956;9.154;2023-05-24T05:42:20;22.70;56.60
7077;DHT22;3579;48.956;9.154;2023-05-24T05:44:46;22.70;56.50
7077;DHT22;3579;48.956;9.154;2023-05-24T05:47:12;22.70;56.50
7077;DHT22;3579;48.956;9.154;2023-05-24T05:49:38;22.70;56.40
7077;DHT22;3579;48.956;9.154;2023-05-24T05:52:05;22.70;56.30
7077;DHT22;3579;48.956;9.154;2023-05-24T05:54:31;22.70;56.30
7077;DHT22;3579;48.956;9.154;2023-05-24T05:56:57;22.70;56.20
7077;DHT22;3579;48.956;9.154;2023-05-24T05:59:23;22.70;56.20
7077;DHT22;3579;48.956;9.154;2023-05-24T06:01:49;22.70;56.20
7077;DHT22;3579;48.956;9.154;2023-05-24T06:04:15;22.70;56.20
7077;DHT22;3579;48.956;9.154;2023-05-24T06:06:41;22.70;56.20
7077;DHT22;3579;48.956;9.154;2023-05-24T06:09:10;22.70;56.20
7077;DHT22;3579;48.956;9.154;2023-05-24T06:11:36;22.70;56.20
7077;DHT22;3579;48.956;9.154;2023-05-24T06:14:04;22.70;56.20
7077;DHT22;3579;48.956;9.154;2023-05-24T06:16:30;22.70;56.20
7077;DHT22;3579;48.956;9.154;2023-05-24T06:18:57;22.70;56.20
7077;DHT22;3579;48.956;9.154;2023-05-24T06:21:23;22.70;56.30
7077;DHT22;3579;48.956;9.154;2023-05-24T06:23:49;22.70;56.20
7077;DHT22;3579;48.956;9.154;2023-05-24T06:26:15;22.70;56.70
7077;DHT22;3579;48.956;9.154;2023-05-24T06:28:41;22.70;56.10
7077;DHT22;3579;48.956;9.154;2023-05-24T06:31:07;22.70;56.00
7077;DHT22;3579;48.956;9.154;2023-05-24T06:33:33;22.70;55.90
7077;DHT22;3579;48.956;9.154;2023-05-24T06:35:59;22.70;55.80
7077;DHT22;3579;48.956;9.154;2023-05-24T06:38:25;22.70;55.70
7077;DHT22;3579;48.956;9.154;2023-05-24T06:40:52;22.70;55.70
7077;DHT22;3579;48.956;9.154;2023-05-24T06:43:19;22.70;55.60
7077;DHT22;3579;48.956;9.154;2023-05-24T06:45:45;22.70;55.60
7077;DHT22;3579;48.956;9.154;2023-05-24T06:48:16;22.70;55.50
7077;DHT22;3579;48.956;9.154;2023-05-24T06:50:42;22.70;55.40
7077;DHT22;3579;48.956;9.154;2023-05-24T06:53:08;22.70;55.40
7077;DHT22;3579;48.956;9.154;2023-05-24T06:55:35;22.70;55.80
7077;DHT22;3579;48.956;9.154;2023-05-24T06:58:01;22.80;55.40
7077;DHT22;3579;48.956;9.154;2023-05-24T07:00:28;22.70;55.20
7077;DHT22;3579;48.956;9.154;2023-05-24T07:02:54;22.80;55.20
7077;DHT22;3579;48.956;9.154;2023-05-24T07:05:21;22.80;55.20
7077;DHT22;3579;48.956;9.154;2023-05-24T07:07:47;22.80;55.10
7077;DHT22;3579;48.956;9.154;2023-05-24T07:10:13;22.80;55.00
7077;DHT22;3579;48.956;9.154;2023-05-24T07:12:39;22.80;54.80
7077;DHT22;3579;48.956;9.154;2023-05-24T07:15:06;22.80;54.70
7077;DHT22;3579;48.956;9.154;2023-05-24T07:17:33;22.80;54.60
7077;DHT22;3579;48.956;9.154;2023-05-24T07:20:00;22.80;54.50
7077;DHT22;3579;48.956;9.154;2023-05-24T07:22:26;22.80;54.50
7077;DHT22;3579;48.956;9.154;2023-05-24T07:24:54;22.80;54.50
7077;DHT22;3579;48.956;9.154;2023-05-24T07:27:20;22.80;54.50
7077;DHT22;3579;48.956;9.154;2023-05-24T07:29:47;22.80;54.50
7077;DHT22;3579;48.956;9.154;2023-05-24T07:32:15;22.80;54.50
7077;DHT22;3579;48.956;9.154;2023-05-24T07:34:41;22.80;54.40
7077;DHT22;3579;48.956;9.154;2023-05-24T07:37:08;22.90;54.40
7077;DHT22;3579;48.956;9.154;2023-05-24T07:39:34;22.50;50.90
7077;DHT22;3579;48.956;9.154;2023-05-24T07:42:00;22.10;49.60
7077;DHT22;3579;48.956;9.154;2023-05-24T07:44:26;22.00;50.40
7077;DHT22;3579;48.956;9.154;2023-05-24T07:46:52;22.30;52.90
7077;DHT22;3579;48.956;9.154;2023-05-24T07:49:20;22.50;53.60
7077;DHT22;3579;48.956;9.154;2023-05-24T07:51:47;22.60;54.00
7077;DHT22;3579;48.956;9.154;2023-05-24T07:54:13;22.70;54.20
7077;DHT22;3579;48.956;9.154;2023-05-24T07:56:41;22.80;54.60
7077;DHT22;3579;48.956;9.154;2023-05-24T07:59:07;22.90;54.60
7077;DHT22;3579;48.956;9.154;2023-05-24T08:01:34;22.90;54.80
7077;DHT22;3579;48.956;9.154;2023-05-24T08:04:01;23.00;55.00
7077;DHT22;3579;48.956;9.154;2023-05-24T08:06:30;23.00;54.90
7077;DHT22;3579;48.956;9.154;2023-05-24T08:08:57;23.10;55.10
7077;DHT22;3579;48.956;9.154;2023-05-24T08:11:23;23.00;55.00
7077;DHT22;3579;48.956;9.154;2023-05-24T08:13:50;23.10;55.20
7077;DHT22;3579;48.956;9.154;2023-05-24T08:16:17;23.10;55.20
7077;DHT22;3579;48.956;9.154;2023-05-24T08:18:43;23.20;55.30
7077;DHT22;3579;48.956;9.154;2023-05-24T08:21:09;23.20;55.30
7077;DHT22;3579;48.956;9.154;2023-05-24T08:23:36;23.20;55.30
7077;DHT22;3579;48.956;9.154;2023-05-24T08:26:02;23.20;55.30
7077;DHT22;3579;48.956;9.154;2023-05-24T08:28:28;23.30;55.40
7077;DHT22;3579;48.956;9.154;2023-05-24T08:30:54;23.30;55.50
7077;DHT22;3579;48.956;9.154;2023-05-24T08:33:20;23.30;55.50
7077;DHT22;3579;48.956;9.154;2023-05-24T08:35:50;23.30;55.80
7077;DHT22;3579;48.956;9.154;2023-05-24T08:38:16;23.40;55.70
7077;DHT22;3579;48.956;9.154;2023-05-24T08:40:43;23.40;55.80
7077;DHT22;3579;48.956;9.154;2023-05-24T08:43:09;23.40;55.70
7077;DHT22;3579;48.956;9.154;2023-05-24T08:45:38;23.40;56.10
7077;DHT22;3579;48.956;9.154;2023-05-24T08:48:05;23.40;55.70
7077;DHT22;3579;48.956;9.154;2023-05-24T08:50:32;23.50;56.00
7077;DHT22;3579;48.956;9.154;2023-05-24T08:53:00;23.40;56.00
7077;DHT22;3579;48.956;9.154;2023-05-24T08:55:29;23.40;56.00
7077;DHT22;3579;48.956;9.154;2023-05-24T08:57:56;23.40;56.10
7077;DHT22;3579;48.956;9.154;2023-05-24T09:00:23;23.50;56.30
7077;DHT22;3579;48.956;9.154;2023-05-24T09:02:49;23.50;56.30
7077;DHT22;3579;48.956;9.154;2023-05-24T09:05:16;23.50;56.30
7077;DHT22;3579;48.956;9.154;2023-05-24T09:07:44;23.50;56.30
7077;DHT22;3579;48.956;9.154;2023-05-24T09:10:10;23.60;56.40
7077;DHT22;3579;48.956;9.154;2023-05-24T09:12:38;21.70;44.80
7077;DHT22;3579;48.956;9.154;2023-05-24T09:15:05;20.20;46.70
7077;DHT22;3579;48.956;9.154;2023-05-24T09:17:33;20.40;46.00
7077;DHT22;3579;48.956;9.154;2023-05-24T09:19:59;21.00;47.10
7077;DHT22;3579;48.956;9.154;2023-05-24T09:22:27;21.70;47.00
7077;DHT22;3579;48.956;9.154;2023-05-24T09:24:59;22.10;47.80
7077;DHT22;3579;48.956;9.154;2023-05-24T09:27:26;22.30;48.10
7077;DHT22;3579;48.956;9.154;2023-05-24T09:29:52;22.50;48.50
7077;DHT22;3579;48.956;9.154;2023-05-24T09:32:20;22.60;48.80
7077;DHT22;3579;48.956;9.154;2023-05-24T09:34:50;22.70;49.00
7077;DHT22;3579;48.956;9.154;2023-05-24T09:37:20;22.70;49.20
7077;DHT22;3579;48.956;9.154;2023-05-24T09:39:49;22.80;49.50
7077;DHT22;3579;48.956;9.154;2023-05-24T09:42:20;22.90;49.80
7077;DHT22;3579;48.956;9.154;2023-05-24T09:45:05;22.90;50.00
7077;DHT22;3579;48.956;9.154;2023-05-24T09:47:36;23.00;50.20
7077;DHT22;3579;48.956;9.154;2023-05-24T09:50:03;23.00;50.40
7077;DHT22;3579;48.956;9.154;2023-05-24T09:52:30;23.10;50.60
7077;DHT22;3579;48.956;9.154;2023-05-24T09:54:56;23.00;50.70
7077;DHT22;3579;48.956;9.154;2023-05-24T09:57:22;23.10;50.80
7077;DHT22;3579;48.956;9.154;2023-05-24T09:59:49;23.20;51.00
7077;DHT22;3579;48.956;9.154;2023-05-24T10:02:15;23.20;51.10
7077;DHT22;3579;48.956;9.154;2023-05-24T10:04:45;23.20;51.20
7077;DHT22;3579;48.956;9.154;2023-05-24T10:07:11;23.30;51.20
7077;DHT22;3579;48.956;9.154;2023-05-24T10:09:38;23.30;51.20
7077;DHT22;3579;48.956;9.154;2023-05-24T10:12:07;23.30;51.20
7077;DHT22;3579;48.956;9.154;2023-05-24T10:14:37;23.40;51.50
7077;DHT22;3579;48.956;9.154;2023-05-24T10:17:04;23.40;51.60
7077;DHT22;3579;48.956;9.154;2023-05-24T10:19:32;23.50;51.80
7077;DHT22;3579;48.956;9.154;2023-05-24T10:21:59;23.50;52.30
7077;DHT22;3579;48.956;9.154;2023-05-24T10:24:32;23.50;51.90
7077;DHT22;3579;48.956;9.154;2023-05-24T10:27:03;23.60;52.00
7077;DHT22;3579;48.956;9.154;2023-05-24T10:29:47;23.60;52.10
7077;DHT22;3579;48.956;9.154;2023-05-24T10:32:18;23.60;52.30
7077;DHT22;3579;48.956;9.154;2023-05-24T10:34:46;23.70;51.80
7077;DHT22;3579;48.956;9.154;2023-05-24T10:37:13;23.70;51.70
7077;DHT22;3579;48.956;9.154;2023-05-24T10:39:41;23.70;52.00
7077;DHT22;3579;48.956;9.154;2023-05-24T10:42:07;23.80;52.20
7077;DHT22;3579;48.956;9.154;2023-05-24T10:44:33;23.80;52.10
7077;DHT22;3579;48.956;9.154;2023-05-24T10:49:38;24.00;52.30
7077;DHT22;3579;48.956;9.154;2023-05-24T10:52:09;24.00;52.50
7077;DHT22;3579;48.956;9.154;2023-05-24T10:54:35;24.00;52.40
7077;DHT22;3579;48.956;9.154;2023-05-24T10:57:05;24.00;52.90
7077;DHT22;3579;48.956;9.154;2023-05-24T10:59:37;24.00;52.10
7077;DHT22;3579;48.956;9.154;2023-05-24T11:02:07;24.10;52.70
7077;DHT22;3579;48.956;9.154;2023-05-24T11:04:44;24.00;52.20
7077;DHT22;3579;48.956;9.154;2023-05-24T11:07:13;24.00;52.40
7077;DHT22;3579;48.956;9.154;2023-05-24T11:09:41;24.00;52.40
7077;DHT22;3579;48.956;9.154;2023-05-24T11:12:15;24.00;52.40
7077;DHT22;3579;48.956;9.154;2023-05-24T11:14:47;24.00;52.30
7077;DHT22;3579;48.956;9.154;2023-05-24T11:17:14;24.00;52.20
7077;DHT22;3579;48.956;9.154;2023-05-24T11:20:01;24.00;52.20
7077;DHT22;3579;48.956;9.154;2023-05-24T11:22:29;24.10;52.10
7077;DHT22;3579;48.956;9.154;2023-05-24T11:24:56;24.10;51.90
7077;DHT22;3579;48.956;9.154;2023-05-24T11:27:27;24.20;51.90
7077;DHT22;3579;48.956;9.154;2023-05-24T11:29:57;24.20;52.00
7077;DHT22;3579;48.956;9.154;2023-05-24T11:32:23;24.20;51.90
7077;DHT22;3579;48.956;9.154;2023-05-24T11:34:49;24.20;51.90
7077;DHT22;3579;48.956;9.154;2023-05-24T11:37:16;24.20;51.80
7077;DHT22;3579;48.956;9.154;2023-05-24T11:39:42;24.20;51.80
7077;DHT22;3579;48.956;9.154;2023-05-24T11:42:09;24.20;51.80
7077;DHT22;3579;48.956;9.154;2023-05-24T11:44:35;24.20;51.70
7077;DHT22;3579;48.956;9.154;2023-05-24T11:47:06;24.30;51.70
7077;DHT22;3579;48.956;9.154;2023-05-24T11:49:33;24.30;51.70
7077;DHT22;3579;48.956;9.154;2023-05-24T11:52:00;24.20;48.00
7077;DHT22;3579;48.956;9.154;2023-05-24T11:54:27;23.60;42.80
7077;DHT22;3579;48.956;9.154;2023-05-24T11:56:53;23.30;42.00
7077;DHT22;3579;48.956;9.154;2023-05-24T11:59:25;23.30;42.90
7077;DHT22;3579;48.956;9.154;2023-05-24T12:01:59;23.30;42.40
7077;DHT22;3579;48.956;9.154;2023-05-24T12:04:26;23.30;41.80
7077;DHT22;3579;48.956;9.154;2023-05-24T12:06:53;23.30;41.80
7077;DHT22;3579;48.956;9.154;2023-05-24T12:09:19;23.20;40.90
7077;DHT22;3579;48.956;9.154;2023-05-24T12:11:47;23.20;41.10
7077;DHT22;3579;48.956;9.154;2023-05-24T12:14:23;23.20;41.10
7077;DHT22;3579;48.956;9.154;2023-05-24T12:16:53;23.20;40.80
7077;DHT22;3579;48.956;9.154;2023-05-24T12:19:21;23.20;40.40
7077;DHT22;3579;48.956;9.154;2023-05-24T12:21:48;23.20;40.80
7077;DHT22;3579;48.956;9.154;2023-05-24T12:24:16;23.30;40.30
7077;DHT22;3579;48.956;9.154;2023-05-24T12:26:46;23.20;39.80
7077;DHT22;3579;48.956;9.154;2023-05-24T12:29:13;23.20;40.60
7077;DHT22;3579;48.956;9.154;2023-05-24T12:31:40;23.20;40.00
7077;DHT22;3579;48.956;9.154;2023-05-24T12:34:14;23.20;40.10
7077;DHT22;3579;48.956;9.154;2023-05-24T12:36:42;23.20;40.10
7077;DHT22;3579;48.956;9.154;2023-05-24T12:39:25;23.20;40.00
7077;DHT22;3579;48.956;9.154;2023-05-24T12:42:00;23.20;40.00
7077;DHT22;3579;48.956;9.154;2023-05-24T12:44:33;23.20;39.80
7077;DHT22;3579;48.956;9.154;2023-05-24T12:47:01;23.20;39.60
7077;DHT22;3579;48.956;9.154;2023-05-24T12:49:27;23.20;40.20
7077;DHT22;3579;48.956;9.154;2023-05-24T12:51:54;21.70;38.70
7077;DHT22;3579;48.956;9.154;2023-05-24T12:54:23;21.80;39.00
7077;DHT22;3579;48.956;9.154;2023-05-24T12:56:50;21.10;38.60
7077;DHT22;3579;48.956;9.154;2023-05-24T12:59:16;20.70;40.30
7077;DHT22;3579;48.956;9.154;2023-05-24T13:01:42;21.40;41.00
7077;DHT22;3579;48.956;9.154;2023-05-24T13:04:11;21.80;40.40
7077;DHT22;3579;48.956;9.154;2023-05-24T13:06:38;22.00;40.20
7077;DHT22;3579;48.956;9.154;2023-05-24T13:09:04;22.30;40.20
7077;DHT22;3579;48.956;9.154;2023-05-24T13:11:31;22.40;40.30
7077;DHT22;3579;48.956;9.154;2023-05-24T13:13:57;22.50;38.80
7077;DHT22;3579;48.956;9.154;2023-05-24T13:16:24;22.50;38.70
7077;DHT22;3579;48.956;9.154;2023-05-24T13:18:51;22.50;39.00
7077;DHT22;3579;48.956;9.154;2023-05-24T13:21:17;22.60;39.50
7077;DHT22;3579;48.956;9.154;2023-05-24T13:23:43;22.60;39.40
7077;DHT22;3579;48.956;9.154;2023-05-24T13:26:10;22.60;39.50
7077;DHT22;3579;48.956;9.154;2023-05-24T13:28:37;22.60;39.80
7077;DHT22;3579;48.956;9.154;2023-05-24T13:31:04;22.60;39.80
7077;DHT22;3579;48.956;9.154;2023-05-24T13:33:31;22.60;39.80
7077;DHT22;3579;48.956;9.154;2023-05-24T13:35:57;22.60;39.60
7077;DHT22;3579;48.956;9.154;2023-05-24T13:38:24;22.60;39.80
7077;DHT22;3579;48.956;9.154;2023-05-24T13:40:51;22.60;39.10
7077;DHT22;3579;48.956;9.154;2023-05-24T13:43:18;22.60;39.90
7077;DHT22;3579;48.956;9.154;2023-05-24T13:45:45;22.70;40.00
7077;DHT22;3579;48.956;9.154;2023-05-24T13:48:11;22.60;39.10
7077;DHT22;3579;48.956;9.154;2023-05-24T13:50:37;22.50;39.70
7077;DHT22;3579;48.956;9.154;2023-05-24T13:53:04;22.60;39.20
7077;DHT22;3579;48.956;9.154;2023-05-24T13:55:32;22.60;39.40
7077;DHT22;3579;48.956;9.154;2023-05-24T13:57:59;22.30;39.00
7077;DHT22;3579;48.956;9.154;2023-05-24T14:00:26;22.70;38.80
7077;DHT22;3579;48.956;9.154;2023-05-24T14:02:54;22.60;38.30
7077;DHT22;3579;48.956;9.154;2023-05-24T14:05:20;22.50;38.70
7077;DHT22;3579;48.956;9.154;2023-05-24T14:07:47;22.70;39.10
7077;DHT22;3579;48.956;9.154;2023-05-24T14:10:13;22.90;39.90
7077;DHT22;3579;48.956;9.154;2023-05-24T14:12:40;23.10;40.00
7077;DHT22;3579;48.956;9.154;2023-05-24T14:15:07;23.20;40.40
7077;DHT22;3579;48.956;9.154;2023-05-24T14:17:33;23.20;40.80
7077;DHT22;3579;48.956;9.154;2023-05-24T14:20:00;23.30;41.00
7077;DHT22;3579;48.956;9.154;2023-05-24T14:22:26;23.40;41.30
7077;DHT22;3579;48.956;9.154;2023-05-24T14:24:54;23.40;41.50
7077;DHT22;3579;48.956;9.154;2023-05-24T14:27:35;24.30;42.40
7077;DHT22;3579;48.956;9.154;2023-05-24T14:30:12;23.60;41.90
7077;DHT22;3579;48.956;9.154;2023-05-24T14:32:43;23.60;42.10
7077;DHT22;3579;48.956;9.154;2023-05-24T14:35:10;23.70;42.30
7077;DHT22;3579;48.956;9.154;2023-05-24T14:37:36;23.70;42.30
7077;DHT22;3579;48.956;9.154;2023-05-24T14:40:04;23.80;42.60
7077;DHT22;3579;48.956;9.154;2023-05-24T14:42:31;23.80;42.70
7077;DHT22;3579;48.956;9.154;2023-05-24T14:44:58;23.80;42.90
7077;DHT22;3579;48.956;9.154;2023-05-24T14:47:24;23.90;43.70
7077;DHT22;3579;48.956;9.154;2023-05-24T14:49:50;23.90;43.90
7077;DHT22;3579;48.956;9.154;2023-05-24T14:52:16;23.70;40.80
7077;DHT22;3579;48.956;9.154;2023-05-24T14:54:42;23.40;40.70
7077;DHT22;3579;48.956;9.154;2023-05-24T14:57:08;23.30;39.50
7077;DHT22;3579;48.956;9.154;2023-05-24T14:59:34;23.20;39.20
7077;DHT22;3579;48.956;9.154;2023-05-24T15:02:00;23.20;38.60
7077;DHT22;3579;48.956;9.154;2023-05-24T15:04:26;23.10;38.40
7077;DHT22;3579;48.956;9.154;2023-05-24T15:06:53;23.10;38.60
7077;DHT22;3579;48.956;9.154;2023-05-24T15:09:19;23.00;37.60
7077;DHT22;3579;48.956;9.154;2023-05-24T15:11:45;23.00;38.00
7077;DHT22;3579;48.956;9.154;2023-05-24T15:14:11;23.20;38.70
7077;DHT22;3579;48.956;9.154;2023-05-24T15:16:37;23.40;39.50
7077;DHT22;3579;48.956;9.154;2023-05-24T15:19:04;23.60;39.80
7077;DHT22;3579;48.956;9.154;2023-05-24T15:21:30;23.70;40.40
7077;DHT22;3579;48.956;9.154;2023-05-24T15:23:56;23.70;41.00
7077;DHT22;3579;48.956;9.154;2023-05-24T15:26:22;23.80;42.00
7077;DHT22;3579;48.956;9.154;2023-05-24T15:28:48;23.90;41.70
7077;DHT22;3579;48.956;9.154;2023-05-24T15:31:14;23.90;41.80
7077;DHT22;3579;48.956;9.154;2023-05-24T15:33:40;24.00;42.00
7077;DHT22;3579;48.956;9.154;2023-05-24T15:36:07;24.00;42.00
7077;DHT22;3579;48.956;9.154;2023-05-24T15:38:33;24.00;42.00
7077;DHT22;3579;48.956;9.154;2023-05-24T15:40:59;24.00;42.00
7077;DHT22;3579;48.956;9.154;2023-05-24T15:43:25;24.10;42.20
7077;DHT22;3579;48.956;9.154;2023-05-24T15:45:51;24.10;42.20
7077;DHT22;3579;48.956;9.154;2023-05-24T15:48:18;24.10;42.30
7077;DHT22;3579;48.956;9.154;2023-05-24T15:50:44;24.10;42.20
7077;DHT22;3579;48.956;9.154;2023-05-24T15:53:10;24.10;42.20
7077;DHT22;3579;48.956;9.154;2023-05-24T15:55:36;24.10;42.20
7077;DHT22;3579;48.956;9.154;2023-05-24T15:58:03;24.20;42.40
7077;DHT22;3579;48.956;9.154;2023-05-24T16:00:29;24.20;42.40
7077;DHT22;3579;48.956;9.154;2023-05-24T16:02:55;24.20;42.40
7077;DHT22;3579;48.956;9.154;2023-05-24T16:05:22;24.20;42.50
7077;DHT22;3579;48.956;9.154;2023-05-24T16:07:49;24.20;42.50
7077;DHT22;3579;48.956;9.154;2023-05-24T16:10:16;24.20;42.60
7077;DHT22;3579;48.956;9.154;2023-05-24T16:12:42;24.20;42.60
7077;DHT22;3579;48.956;9.154;2023-05-24T16:15:08;24.20;42.60
7077;DHT22;3579;48.956;9.154;2023-05-24T16:17:35;24.20;42.80
7077;DHT22;3579;48.956;9.154;2023-05-24T16:20:01;24.20;42.90
7077;DHT22;3579;48.956;9.154;2023-05-24T16:22:27;24.20;42.90